createdAt,value
2023-04-09T00:03:06.384Z,24.93
2023-04-09T00:07:09.535Z,26.00
2023-04-09T00:11:11.371Z,25.40
2023-04-09T00:15:20.628Z,26.67
2023-04-09T00:19:29.458Z,23.87
2023-04-09T00:23:32.230Z,23.93
2023-04-09T00:27:34.244Z,26.37
2023-04-09T00:31:37.188Z,31.20
2023-04-09T00:35:39.082Z,27.47
2023-04-09T00:39:44.185Z,24.53
2023-04-09T00:43:45.572Z,25.10
2023-04-09T00:47:47.195Z,26.50
2023-04-09T00:51:48.821Z,24.23
2023-04-09T00:55:52.421Z,24.27
2023-04-09T00:59:53.966Z,26.37
2023-04-09T01:03:56.205Z,25.10
2023-04-09T01:08:04.651Z,29.90
2023-04-09T01:12:14.506Z,26.83
2023-04-09T01:16:16.856Z,29.30
2023-04-09T01:20:28.851Z,25.20
2023-04-09T01:24:40.324Z,24.90
2023-04-09T01:28:46.434Z,29.13
2023-04-09T01:32:49.537Z,24.77
2023-04-09T01:36:54.084Z,27.40
2023-04-09T01:40:57.337Z,25.97
2023-04-09T01:45:01.355Z,28.90
2023-04-09T01:49:03.262Z,28.23
2023-04-09T01:53:05.037Z,25.53
2023-04-09T01:57:07.768Z,28.77
2023-04-09T02:01:16.719Z,26.70
2023-04-09T02:05:20.753Z,23.70
2023-04-09T02:09:24.923Z,24.97
2023-04-09T02:13:28.340Z,27.13
2023-04-09T02:17:31.162Z,28.37
2023-04-09T02:21:32.769Z,29.03
2023-04-09T02:25:34.188Z,30.70
2023-04-09T02:29:35.585Z,28.70
2023-04-09T02:33:38.377Z,26.23
2023-04-09T02:37:40.027Z,26.03
2023-04-09T02:41:41.502Z,26.07
2023-04-09T02:45:43.183Z,24.00
2023-04-09T02:49:48.093Z,25.53
2023-04-09T02:53:49.767Z,27.33
2023-04-09T02:57:51.458Z,25.53
2023-04-09T03:01:53.045Z,26.53
2023-04-09T03:05:56.145Z,28.77
2023-04-09T03:09:57.660Z,32.13
2023-04-09T03:13:59.246Z,28.07
2023-04-09T03:18:00.672Z,25.77
2023-04-09T03:22:03.694Z,28.63
2023-04-09T03:26:06.151Z,28.07
2023-04-09T03:30:08.761Z,27.83
2023-04-09T03:34:10.206Z,33.53
2023-04-09T03:38:13.324Z,32.13
2023-04-09T03:42:14.779Z,25.37
2023-04-09T03:46:17.802Z,27.97
2023-04-09T03:50:19.296Z,24.80
2023-04-09T03:54:24.720Z,32.20
2023-04-09T03:58:26.148Z,32.23
2023-04-09T04:02:27.899Z,33.97
2023-04-09T04:06:33.084Z,34.67
2023-04-09T04:10:35.855Z,36.77
2023-04-09T04:14:37.326Z,35.00
2023-04-09T04:18:39.052Z,40.13
2023-04-09T04:22:40.439Z,38.07
2023-04-09T04:26:43.246Z,44.20
2023-04-09T04:30:45.527Z,38.30
2023-04-09T04:34:48.853Z,37.40
2023-04-09T04:38:50.643Z,34.53
2023-04-09T04:42:54.284Z,32.57
2023-04-09T04:46:57.173Z,33.47
2023-04-09T04:51:00.450Z,29.60
2023-04-09T04:55:03.049Z,31.47
2023-04-09T04:59:06.065Z,28.37
2023-04-09T05:03:07.797Z,29.50
2023-04-09T05:07:09.321Z,28.80
2023-04-09T05:11:11.784Z,29.13
2023-04-09T05:15:17.068Z,28.73
2023-04-09T05:19:19.607Z,30.63
2023-04-09T05:23:22.889Z,32.23
2023-04-09T05:27:24.890Z,31.17
2023-04-09T05:31:27.871Z,29.77
2023-04-09T05:35:30.782Z,27.40
2023-04-09T05:39:32.474Z,29.90
2023-04-09T05:43:33.904Z,28.87
2023-04-09T05:47:37.006Z,25.80
2023-04-09T05:51:38.443Z,26.20
2023-04-09T05:55:39.955Z,25.80
2023-04-09T05:59:41.559Z,23.77
2023-04-09T06:03:46.138Z,24.10
2023-04-09T06:07:47.877Z,23.70
2023-04-09T06:11:49.462Z,21.87
2023-04-09T06:15:50.836Z,21.77
2023-04-09T06:19:54.047Z,21.07
2023-04-09T06:23:55.457Z,22.17
2023-04-09T06:27:56.876Z,20.53
2023-04-09T06:31:58.506Z,20.70
2023-04-09T06:36:02.391Z,19.17
2023-04-09T06:40:04.369Z,18.20
2023-04-09T06:44:05.834Z,15.93
2023-04-09T06:48:07.311Z,16.50
2023-04-09T06:52:10.612Z,15.63
2023-04-09T06:56:12.355Z,13.07
2023-04-09T07:00:14.630Z,13.57
2023-04-09T07:04:16.154Z,12.80
2023-04-09T07:08:18.975Z,13.47
2023-04-09T07:12:26.590Z,13.20
2023-04-09T07:16:28.589Z,11.43
2023-04-09T07:20:30.165Z,12.50
2023-04-09T07:24:33.324Z,11.77
2023-04-09T07:28:34.722Z,10.73
2023-04-09T07:32:37.179Z,10.87
2023-04-09T07:36:38.870Z,9.73
2023-04-09T07:40:41.914Z,9.70
2023-04-09T07:44:43.561Z,9.37
2023-04-09T07:48:46.167Z,9.63
2023-04-09T07:52:48.744Z,9.10
2023-04-09T07:56:51.931Z,9.37
2023-04-09T08:00:53.377Z,10.83
2023-04-09T08:04:54.919Z,8.73
2023-04-09T08:08:56.652Z,9.00
2023-04-09T08:12:59.349Z,8.20
2023-04-09T08:17:00.973Z,8.43
2023-04-09T08:21:04.695Z,8.53
2023-04-09T08:25:07.232Z,8.67
2023-04-09T08:29:11.428Z,7.20
2023-04-09T08:33:13.667Z,7.70
2023-04-09T08:37:16.097Z,7.27
2023-04-09T08:41:19.233Z,7.37
2023-04-09T08:45:22.704Z,7.83
2023-04-09T08:49:24.333Z,7.00
2023-04-09T08:53:26.581Z,7.90
2023-04-09T08:57:27.996Z,4.50
2023-04-09T09:01:31.638Z,5.77
2023-04-09T09:05:36.651Z,5.30
2023-04-09T09:09:51.743Z,5.07
2023-04-09T09:13:57.881Z,5.00
2023-04-09T09:18:01.163Z,4.23
2023-04-09T09:22:05.544Z,5.00
2023-04-09T09:26:12.609Z,4.43
2023-04-09T09:30:22.220Z,4.57
2023-04-09T09:34:25.539Z,5.17
2023-04-09T09:38:27.161Z,5.30
2023-04-09T09:42:28.692Z,5.53
2023-04-09T09:46:33.975Z,5.40
2023-04-09T09:50:38.262Z,5.27
2023-04-09T09:54:41.466Z,6.63
2023-04-09T09:58:48.590Z,5.30
2023-04-09T10:02:58.921Z,4.83
2023-04-09T10:07:06.530Z,5.17
2023-04-09T10:11:08.148Z,12.33
2023-04-09T10:15:10.530Z,6.37
2023-04-09T10:19:12.981Z,5.70
2023-04-09T10:23:27.196Z,4.20
2023-04-09T10:27:28.770Z,5.03
2023-04-09T10:31:45.697Z,6.47
2023-04-09T10:35:47.431Z,5.50
2023-04-09T10:39:51.346Z,5.80
2023-04-09T10:43:53.135Z,5.80
2023-04-09T10:47:54.624Z,4.93
2023-04-09T10:52:02.195Z,6.70
2023-04-09T10:56:15.336Z,4.53
2023-04-09T11:00:16.960Z,7.23
2023-04-09T11:04:21.049Z,4.20
2023-04-09T11:08:22.597Z,4.73
2023-04-09T11:12:25.700Z,4.40
2023-04-09T11:16:29.707Z,4.33
2023-04-09T11:20:34.345Z,4.77
2023-04-09T11:24:41.935Z,4.80
2023-04-09T11:28:45.377Z,5.33
2023-04-09T11:32:48.031Z,5.23
2023-04-09T11:36:49.692Z,4.33
2023-04-09T11:40:57.476Z,5.03
2023-04-09T11:45:00.556Z,4.97
2023-04-09T11:49:03.206Z,4.13
2023-04-09T11:53:16.208Z,4.40
2023-04-09T11:57:17.873Z,6.13
2023-04-09T12:01:22.160Z,5.07
2023-04-09T12:05:25.283Z,4.43
2023-04-09T12:09:27.206Z,4.90
2023-04-09T12:13:32.666Z,4.70
2023-04-09T12:17:35.714Z,6.70
2023-04-09T12:21:47.522Z,5.03
2023-04-09T12:25:48.878Z,5.70
2023-04-09T12:29:50.258Z,6.00
2023-04-09T12:33:53.244Z,5.43
2023-04-09T12:37:55.990Z,4.97
2023-04-09T12:41:57.367Z,5.37
2023-04-09T12:45:59.141Z,4.87
2023-04-09T12:50:02.248Z,4.60
2023-04-09T12:54:03.808Z,4.97
2023-04-09T12:58:05.456Z,5.10
2023-04-09T13:02:08.379Z,5.30
2023-04-09T13:06:11.227Z,5.10
2023-04-09T13:10:12.680Z,5.03
2023-04-09T13:14:14.165Z,5.30
2023-04-09T13:18:15.689Z,4.63
2023-04-09T13:22:19.264Z,4.87
2023-04-09T13:26:20.689Z,6.03
2023-04-09T13:30:22.999Z,4.70
2023-04-09T13:34:24.714Z,5.17
2023-04-09T13:38:27.518Z,5.10
2023-04-09T13:42:29.174Z,5.20
2023-04-09T13:46:30.612Z,4.83
2023-04-09T13:50:32.366Z,5.30
2023-04-09T13:54:35.275Z,5.47
2023-04-09T13:58:36.861Z,4.53
2023-04-09T14:02:38.331Z,4.47
2023-04-09T14:06:40.131Z,4.83
2023-04-09T14:10:44.143Z,4.40
2023-04-09T14:14:45.532Z,4.87
2023-04-09T14:18:47.046Z,4.13
2023-04-09T14:22:49.532Z,4.83
2023-04-09T14:26:52.427Z,5.20
2023-04-09T14:30:53.867Z,4.27
2023-04-09T14:34:55.491Z,3.87
2023-04-09T14:38:57.952Z,4.10
2023-04-09T14:43:01.088Z,3.90
2023-04-09T14:47:02.685Z,4.30
2023-04-09T14:51:04.408Z,4.07
2023-04-09T14:55:06.850Z,4.40
2023-04-09T14:59:09.650Z,4.77
2023-04-09T15:03:11.194Z,5.50
2023-04-09T15:07:12.972Z,4.53
2023-04-09T15:11:15.650Z,6.03
2023-04-09T15:15:18.459Z,4.57
2023-04-09T15:19:19.996Z,4.17
2023-04-09T15:23:21.435Z,4.20
2023-04-09T15:27:23.875Z,4.27
2023-04-09T15:31:26.908Z,4.30
2023-04-09T15:35:28.352Z,4.03
2023-04-09T15:39:29.853Z,3.80
2023-04-09T15:43:31.312Z,3.90
2023-04-09T15:47:36.550Z,3.90
2023-04-09T15:51:38.163Z,4.03
2023-04-09T15:55:39.624Z,4.43
2023-04-09T15:59:41.034Z,5.20
2023-04-09T16:03:44.062Z,4.10
2023-04-09T16:07:49.783Z,4.17
2023-04-09T16:11:51.216Z,4.13
2023-04-09T16:15:52.637Z,4.77
2023-04-09T16:19:56.465Z,3.90
2023-04-09T16:24:00.463Z,4.40
2023-04-09T16:28:02.324Z,4.30
2023-04-09T16:32:04.177Z,3.63
2023-04-09T16:36:07.731Z,4.20
2023-04-09T16:40:09.666Z,4.37
2023-04-09T16:44:11.042Z,3.80
2023-04-09T16:48:12.731Z,5.30
2023-04-09T16:52:15.655Z,5.10
2023-04-09T16:56:17.747Z,3.40
2023-04-09T17:00:19.141Z,4.47
2023-04-09T17:04:21.150Z,3.40
2023-04-09T17:08:24.169Z,4.93
2023-04-09T17:12:25.554Z,4.03
2023-04-09T17:16:26.959Z,3.67
2023-04-09T17:20:28.862Z,4.33
2023-04-09T17:24:32.614Z,3.97
2023-04-09T17:28:34.285Z,3.90
2023-04-09T17:32:38.190Z,5.47
2023-04-09T17:36:40.290Z,4.50
2023-04-09T17:40:43.498Z,4.83
2023-04-09T17:44:45.149Z,4.27
2023-04-09T17:48:46.526Z,4.17
2023-04-09T17:52:47.948Z,6.17
2023-04-09T17:56:53.490Z,9.13
2023-04-09T18:00:55.499Z,7.27
2023-04-09T18:05:00.825Z,4.73
2023-04-09T18:09:02.544Z,5.57
2023-04-09T18:13:05.279Z,4.33
2023-04-09T18:17:06.915Z,3.87
2023-04-09T18:21:08.691Z,4.50
2023-04-09T18:25:10.437Z,3.70
2023-04-09T18:29:13.261Z,3.90
2023-04-09T18:33:15.000Z,3.83
2023-04-09T18:37:16.961Z,4.20
2023-04-09T18:41:22.425Z,4.10
2023-04-09T18:45:25.401Z,4.03
2023-04-09T18:49:26.782Z,3.90
2023-04-09T18:53:28.351Z,6.30
2023-04-09T18:57:29.835Z,4.27
2023-04-09T19:01:32.970Z,3.50
2023-04-09T19:05:36.274Z,3.23
2023-04-09T19:09:37.702Z,3.73
2023-04-09T19:13:39.422Z,3.50
2023-04-09T19:17:42.540Z,4.40
2023-04-09T19:21:44.139Z,3.60
2023-04-09T19:25:50.185Z,4.10
2023-04-09T19:29:51.616Z,6.20
2023-04-09T19:33:54.361Z,4.80
2023-04-09T19:37:55.784Z,4.03
2023-04-09T19:41:57.314Z,6.57
2023-04-09T19:46:04.667Z,5.90
2023-04-09T19:50:08.392Z,4.70
2023-04-09T19:54:09.799Z,5.07
2023-04-09T19:58:12.239Z,6.77
2023-04-09T20:02:14.129Z,7.57
2023-04-09T20:06:17.052Z,7.10
2023-04-09T20:10:19.002Z,6.07
2023-04-09T20:14:20.856Z,5.77
2023-04-09T20:18:22.518Z,4.13
2023-04-09T20:22:25.546Z,5.03
2023-04-09T20:26:28.037Z,4.23
2023-04-09T20:30:30.025Z,4.67
2023-04-09T20:34:32.912Z,4.33
2023-04-09T20:38:38.077Z,4.80
2023-04-09T20:42:40.404Z,5.30
2023-04-09T20:46:42.170Z,5.03
2023-04-09T20:50:43.781Z,5.20
2023-04-09T20:54:46.518Z,5.43
2023-04-09T20:58:48.263Z,6.37
2023-04-09T21:02:50.085Z,8.33
2023-04-09T21:06:51.921Z,5.03
2023-04-09T21:10:54.928Z,4.97
2023-04-09T21:14:56.321Z,5.13
2023-04-09T21:18:57.751Z,5.07
2023-04-09T21:22:59.470Z,5.37
2023-04-09T21:27:02.233Z,5.37
2023-04-09T21:31:03.843Z,4.93
2023-04-09T21:35:07.686Z,6.17
2023-04-09T21:39:09.351Z,5.27
2023-04-09T21:43:12.316Z,6.33
2023-04-09T21:47:15.346Z,5.80
2023-04-09T21:51:16.759Z,6.40
2023-04-09T21:55:20.845Z,5.70
2023-04-09T21:59:24.306Z,5.20
2023-04-09T22:03:26.208Z,5.67
2023-04-09T22:07:28.128Z,5.53
2023-04-09T22:11:30.773Z,5.37
2023-04-09T22:15:34.343Z,5.27
2023-04-09T22:19:35.755Z,5.17
2023-04-09T22:23:37.201Z,4.97
2023-04-09T22:27:38.642Z,4.77
2023-04-09T22:31:41.782Z,5.17
2023-04-09T22:35:43.366Z,6.00
2023-04-09T22:39:45.017Z,5.87
2023-04-09T22:43:46.804Z,6.50
2023-04-09T22:47:49.892Z,5.83
2023-04-09T22:51:51.371Z,8.80
2023-04-09T22:55:54.637Z,5.40
2023-04-09T22:59:57.477Z,5.80
2023-04-09T23:04:01.257Z,5.40
2023-04-09T23:08:02.799Z,9.33
2023-04-09T23:12:05.288Z,13.53
2023-04-09T23:16:08.578Z,12.63
2023-04-09T23:20:12.634Z,9.07
2023-04-09T23:24:14.325Z,5.20
2023-04-09T23:28:15.730Z,7.33
2023-04-09T23:32:17.416Z,9.17
2023-04-09T23:36:20.928Z,9.47
2023-04-09T23:40:22.526Z,5.70
2023-04-09T23:44:23.917Z,7.27
2023-04-09T23:48:25.396Z,4.87
2023-04-09T23:52:28.402Z,6.97
2023-04-09T23:56:29.843Z,8.20
